Fruitland, Idaho
Current Conditions -  °F | °C
As of 11:53 AM on Tuesday 21 Oct 2014 (Local Time) from KONO Reporting Station
Broken Clouds Broken Clouds  
Wind Chill: 57°   Ceiling: 7500
Heat Index: 57°   Visibility: 10mi
Dew Point: 43°   Wind: 10mph
Humidity: 59%   Direction: 240°WSW
Pressure: 30.03"   Gusts: NA
Location:  44.01°N, 116.92°W
Report Text: KONO 211753Z AUTO 24009KT 10SM BKN075 14/06 A3003 RMK AO2 SLP165 T01390061 10139 20094 51017
Loading
Personal Weather Stations






























Interactive Weather Map
Tropical Storm Tracking
New forecast layout! Learn more

10-Day Weather Forecast

Advertisements
Track Severe Weather on mobile